Time;durP1;ratioP1;P1;durP2;ratioP2;P2;SDS_P1;SDS_P2;PMS_P1;PMS_P2;Temp;Humidity;BMP_temperature;BMP_pressure;BME280_temperature;BME280_humidity;BME280_pressure;Samples;Min_cycle;Max_cycle;Signal;HPM_P1;HPM_P2
2024/01/26 00:01:39;;;;;;;7.57;5.30;;;;;;;7.63;78.65;99647.19;5019862;28;103337;-75
2024/01/26 00:04:08;;;;;;;13.75;7.00;;;;;;;7.63;78.41;99653.28;5013283;28;102709;-74
2024/01/26 00:06:36;;;;;;;9.63;6.22;;;;;;;7.53;78.89;99631.25;4999042;28;104073;-75
2024/01/26 00:09:11;;;;;;;12.63;6.60;;;;;;;7.50;80.36;99643.88;4996864;28;104467;-75
2024/01/26 00:11:41;;;;;;;7.05;3.95;;;;;;;7.61;80.33;99638.53;5019948;28;103307;-74
2024/01/26 00:14:10;;;;;;;5.57;3.65;;;;;;;7.71;79.69;99647.38;5018412;28;102589;-75
2024/01/26 00:16:38;;;;;;;8.73;4.68;;;;;;;7.73;79.63;99636.69;5004157;28;102883;-74
2024/01/26 00:19:07;;;;;;;6.95;3.88;;;;;;;7.78;79.29;99635.38;5022414;28;103329;-75
2024/01/26 00:21:37;;;;;;;7.45;3.58;;;;;;;7.84;79.26;99638.47;5017209;28;102651;-74
2024/01/26 00:24:05;;;;;;;6.07;3.38;;;;;;;7.86;78.84;99640.00;5003804;28;102628;-75
2024/01/26 00:26:33;;;;;;;10.13;6.15;;;;;;;7.88;78.47;99637.25;5020103;28;104179;-75
2024/01/26 00:29:02;;;;;;;10.30;5.47;;;;;;;7.90;78.66;99641.44;5018407;28;104367;-74
2024/01/26 00:31:30;;;;;;;8.85;5.55;;;;;;;7.89;78.76;99633.66;4999265;28;104359;-75
2024/01/26 00:33:58;;;;;;;11.23;6.53;;;;;;;7.88;78.55;99631.97;5012385;28;102618;-75
2024/01/26 00:36:26;;;;;;;9.68;6.43;;;;;;;7.84;78.59;99633.19;5015363;28;103934;-75
2024/01/26 00:38:54;;;;;;;10.20;5.80;;;;;;;7.87;78.09;99639.03;5015124;28;104178;-75
2024/01/26 00:41:22;;;;;;;10.80;5.93;;;;;;;7.87;78.42;99635.56;5020146;28;103146;-75
2024/01/26 00:43:50;;;;;;;6.57;3.90;;;;;;;7.88;78.60;99639.88;5018648;28;103032;-74
2024/01/26 00:46:21;;;;;;;9.70;4.78;;;;;;;7.89;78.38;99644.19;5018468;28;102694;-74
2024/01/26 00:48:49;;;;;;;7.03;3.72;;;;;;;7.92;78.26;99641.28;5017025;28;103955;-74
2024/01/26 00:51:17;;;;;;;6.50;3.45;;;;;;;7.95;78.67;99641.03;5017272;28;103059;-74
2024/01/26 00:53:45;;;;;;;9.48;5.68;;;;;;;7.96;78.62;99638.28;4996237;28;103023;-74
2024/01/26 00:56:14;;;;;;;9.57;4.43;;;;;;;7.97;78.26;99641.75;5000449;28;104210;-74
2024/01/26 00:58:42;;;;;;;5.68;3.80;;;;;;;8.01;78.17;99643.16;5013229;28;103293;-74
2024/01/26 01:01:10;;;;;;;8.93;5.50;;;;;;;8.03;78.00;99646.53;5022518;27;103430;-74
2024/01/26 01:03:39;;;;;;;5.43;3.90;;;;;;;8.02;78.33;99655.41;5013666;28;102599;-74
2024/01/26 01:06:07;;;;;;;11.05;4.15;;;;;;;8.02;78.26;99644.84;5015365;28;102580;-74
2024/01/26 01:08:35;;;;;;;7.10;4.20;;;;;;;8.00;78.79;99644.13;4995519;28;104400;-74
2024/01/26 01:11:03;;;;;;;6.20;3.83;;;;;;;8.05;79.71;99644.56;4994398;28;103224;-73
2024/01/26 01:13:31;;;;;;;5.47;4.03;;;;;;;8.05;79.29;99646.38;5015108;28;102623;-73
2024/01/26 01:16:00;;;;;;;4.90;2.83;;;;;;;8.15;79.26;99649.94;5000009;28;104026;-73
2024/01/26 01:18:28;;;;;;;4.05;2.50;;;;;;;8.17;79.84;99650.63;5014032;28;104266;-74
2024/01/26 01:20:58;;;;;;;4.35;2.35;;;;;;;8.22;78.99;99659.00;5012839;28;103241;-74
2024/01/26 01:23:26;;;;;;;3.70;2.13;;;;;;;8.25;78.84;99655.25;5011292;28;102665;-74
2024/01/26 01:25:54;;;;;;;3.53;1.70;;;;;;;8.29;78.90;99657.53;4998459;28;102656;-74
2024/01/26 01:28:25;;;;;;;3.00;1.90;;;;;;;8.34;79.15;99658.94;5017788;28;104220;-74
2024/01/26 01:30:52;;;;;;;3.80;2.30;;;;;;;8.37;79.41;99658.66;5014417;28;103233;-74
2024/01/26 01:33:20;;;;;;;3.20;1.88;;;;;;;8.37;79.05;99659.50;5009372;28;102704;-73
2024/01/26 01:35:48;;;;;;;3.70;2.30;;;;;;;8.39;79.38;99649.63;4997786;28;102929;-73
2024/01/26 01:38:18;;;;;;;3.15;1.95;;;;;;;8.40;79.00;99651.31;4993443;28;105175;-73
2024/01/26 01:40:48;;;;;;;2.67;1.60;;;;;;;8.40;79.33;99648.69;5011336;28;103308;-74
2024/01/26 01:43:17;;;;;;;2.78;1.80;;;;;;;8.42;79.31;99640.63;5004920;28;102559;-74
2024/01/26 01:45:45;;;;;;;2.65;1.70;;;;;;;8.47;78.74;99649.03;5016788;28;104334;-74
2024/01/26 01:48:13;;;;;;;2.40;1.60;;;;;;;8.49;78.84;99643.59;5015183;28;104817;-74
2024/01/26 01:50:43;;;;;;;2.40;1.70;;;;;;;8.49;78.79;99640.97;5007002;28;103253;-73
2024/01/26 01:53:12;;;;;;;2.92;1.60;;;;;;;8.50;78.68;99634.72;4994115;28;102781;-73
2024/01/26 01:55:42;;;;;;;2.63;1.63;;;;;;;8.49;78.57;99628.63;5012014;28;102665;-74
2024/01/26 01:58:10;;;;;;;2.03;1.50;;;;;;;8.52;78.35;99636.25;5017927;28;103356;-73
2024/01/26 02:00:39;;;;;;;2.20;1.50;;;;;;;8.52;78.52;99646.00;5012848;28;103307;-73
2024/01/26 02:03:09;;;;;;;1.98;1.40;;;;;;;8.53;78.25;99647.66;5014290;28;102670;-74
2024/01/26 02:05:37;;;;;;;1.92;1.42;;;;;;;8.51;78.46;99646.97;4994454;28;103948;-74
2024/01/26 02:08:06;;;;;;;3.42;1.98;;;;;;;8.56;78.08;99639.47;5011250;28;104057;-74
2024/01/26 02:10:33;;;;;;;2.50;1.50;;;;;;;8.53;78.47;99637.09;5010064;28;102592;-74
2024/01/26 02:13:04;;;;;;;2.83;1.73;;;;;;;8.50;78.37;99643.47;4994199;28;102707;-74
2024/01/26 02:15:31;;;;;;;2.78;1.70;;;;;;;8.52;78.24;99638.09;4993515;28;102592;-74
2024/01/26 02:17:59;;;;;;;2.75;1.70;;;;;;;8.49;78.11;99636.53;5013079;28;103265;-73
2024/01/26 02:20:28;;;;;;;2.65;1.70;;;;;;;8.46;78.66;99642.91;5009665;28;103336;-74
2024/01/26 02:23:21;;;;;;;3.15;1.73;;;;;;;8.45;78.82;99635.97;5010826;28;102558;-74
2024/01/26 02:25:49;;;;;;;2.95;1.83;;;;;;;8.45;78.45;99635.97;5015688;28;103084;-74
2024/01/26 02:28:17;;;;;;;3.35;2.05;;;;;;;8.47;78.48;99643.75;4994059;28;103307;-73
2024/01/26 02:30:45;;;;;;;2.75;1.73;;;;;;;8.47;78.78;99638.47;4997362;28;104022;-74
2024/01/26 02:33:13;;;;;;;2.97;1.50;;;;;;;8.49;78.17;99649.75;4997182;28;102659;-74
2024/01/26 02:35:41;;;;;;;3.20;1.75;;;;;;;8.51;78.40;99639.88;5008182;28;104040;-74
2024/01/26 02:38:09;;;;;;;4.28;1.77;;;;;;;8.50;78.24;99640.81;5017411;28;103338;-74
2024/01/26 02:40:39;;;;;;;2.97;1.75;;;;;;;8.52;78.34;99632.81;5012467;28;103229;-74
2024/01/26 02:43:06;;;;;;;2.40;1.60;;;;;;;8.56;78.30;99637.66;4997667;28;102665;-73
2024/01/26 02:45:34;;;;;;;2.78;1.73;;;;;;;8.54;78.17;99634.34;5010910;28;103937;-74
2024/01/26 02:48:03;;;;;;;2.50;1.65;;;;;;;8.53;78.00;99643.22;5011953;28;103183;-74
2024/01/26 02:50:33;;;;;;;1.83;1.30;;;;;;;8.53;78.29;99637.09;5011244;28;103403;-75
2024/01/26 02:53:01;;;;;;;3.75;1.52;;;;;;;8.55;77.75;99640.44;5011475;28;102707;-74
2024/01/26 02:55:29;;;;;;;2.20;1.42;;;;;;;8.56;77.99;99626.28;5013713;28;102622;-75
2024/01/26 02:57:58;;;;;;;1.77;1.30;;;;;;;8.59;77.26;99631.28;4999137;28;104440;-74
2024/01/26 03:00:26;;;;;;;2.72;1.70;;;;;;;8.60;77.14;99627.69;5015186;28;103240;-74
2024/01/26 03:02:54;;;;;;;2.33;1.40;;;;;;;8.61;77.10;99634.66;5011376;28;103146;-74
2024/01/26 03:05:22;;;;;;;2.05;1.42;;;;;;;8.61;77.47;99634.66;4990467;28;104814;-74
2024/01/26 03:07:49;;;;;;;1.30;1.20;;;;;;;8.62;76.86;99636.31;5010929;28;104563;-74
2024/01/26 03:10:17;;;;;;;2.15;1.38;;;;;;;8.66;76.80;99636.88;5010932;28;103115;-74
2024/01/26 03:12:47;;;;;;;1.58;1.33;;;;;;;8.63;77.07;99637.97;5007676;28;102657;-74
2024/01/26 03:15:17;;;;;;;2.47;1.50;;;;;;;8.67;76.91;99631.44;5013033;28;102675;-74
2024/01/26 03:17:45;;;;;;;1.85;1.30;;;;;;;8.65;77.16;99632.56;5014396;28;103221;-74
2024/01/26 03:20:13;;;;;;;3.05;1.50;;;;;;;8.65;76.92;99632.56;4992061;28;103223;-74
2024/01/26 03:22:43;;;;;;;1.73;1.30;;;;;;;8.63;76.70;99633.53;4996198;28;102601;-73
2024/01/26 03:25:11;;;;;;;2.35;1.33;;;;;;;8.65;76.36;99630.78;5009796;28;103952;-73
2024/01/26 03:27:39;;;;;;;2.05;1.20;;;;;;;8.67;76.42;99633.28;4988509;28;103362;-74
2024/01/26 03:30:08;;;;;;;2.60;1.52;;;;;;;8.67;76.48;99631.44;4992658;28;102997;-73
2024/01/26 03:32:37;;;;;;;1.17;1.10;;;;;;;8.68;75.93;99622.56;4993944;28;102971;-73
2024/01/26 03:35:06;;;;;;;1.67;1.45;;;;;;;8.71;75.79;99630.25;5012866;28;104191;-73
2024/01/26 03:37:34;;;;;;;1.65;1.10;;;;;;;8.69;76.26;99621.59;5008151;28;103934;-73
2024/01/26 03:40:03;;;;;;;1.08;0.98;;;;;;;8.70;76.40;99627.72;5008226;28;103264;-73
2024/01/26 03:42:31;;;;;;;1.35;1.20;;;;;;;8.70;76.43;99639.13;5004537;28;102623;-73
2024/01/26 03:44:58;;;;;;;1.40;1.30;;;;;;;8.66;76.13;99637.72;4990387;28;103989;-74
2024/01/26 03:47:26;;;;;;;1.30;1.20;;;;;;;8.64;76.48;99639.66;4996754;28;104110;-73
2024/01/26 03:49:56;;;;;;;1.98;1.20;;;;;;;8.63;76.27;99640.63;5009397;28;103224;-74
2024/01/26 03:52:24;;;;;;;1.23;1.10;;;;;;;8.64;75.98;99639.66;4986858;28;102702;-74
2024/01/26 03:54:52;;;;;;;1.33;1.13;;;;;;;8.63;76.32;99638.81;4992803;28;104407;-74
2024/01/26 03:57:20;;;;;;;1.30;1.20;;;;;;;8.58;76.70;99634.88;5012353;28;104095;-74
2024/01/26 03:59:47;;;;;;;1.30;1.20;;;;;;;8.62;76.62;99646.88;4993765;28;103360;-74
2024/01/26 04:02:17;;;;;;;1.95;1.30;;;;;;;8.58;76.60;99641.03;4993875;28;104346;-74
2024/01/26 04:04:45;;;;;;;2.08;1.38;;;;;;;8.59;76.80;99637.44;5009952;28;104099;-74
2024/01/26 04:07:15;;;;;;;1.25;1.15;;;;;;;8.60;76.80;99644.34;5004859;28;104112;-73
2024/01/26 04:09:43;;;;;;;1.20;1.10;;;;;;;8.62;76.16;99646.88;5014997;28;103409;-74
2024/01/26 04:12:11;;;;;;;1.67;1.27;;;;;;;8.57;76.41;99651.72;5008209;28;102616;-74
2024/01/26 04:14:38;;;;;;;1.83;1.25;;;;;;;8.62;76.39;99653.00;4990242;28;102767;-74
2024/01/26 04:17:06;;;;;;;2.33;1.40;;;;;;;8.61;76.66;99640.75;4989933;28;104469;-74
2024/01/26 04:19:34;;;;;;;1.83;1.40;;;;;;;8.61;76.22;99637.28;4997164;28;103360;-74
2024/01/26 04:22:02;;;;;;;3.35;1.67;;;;;;;8.58;76.51;99630.47;5007292;28;102604;-74
2024/01/26 04:24:31;;;;;;;2.20;1.40;;;;;;;8.59;76.60;99637.44;5008830;28;103903;-74
2024/01/26 04:27:00;;;;;;;3.15;1.67;;;;;;;8.62;76.65;99636.31;5011309;28;104169;-74
2024/01/26 04:29:28;;;;;;;4.18;1.88;;;;;;;8.57;76.93;99638.53;4989291;28;104169;-74
2024/01/26 04:31:56;;;;;;;2.03;1.42;;;;;;;8.61;76.57;99629.38;5014191;28;102623;-74
2024/01/26 04:34:24;;;;;;;1.95;1.40;;;;;;;8.56;76.80;99632.38;5008685;27;104337;-74
2024/01/26 04:36:52;;;;;;;2.75;1.58;;;;;;;8.56;76.60;99624.47;5016019;28;102988;-74
2024/01/26 04:39:20;;;;;;;2.72;1.50;;;;;;;8.52;76.72;99615.16;5002835;28;104280;-73
2024/01/26 04:41:49;;;;;;;2.67;1.65;;;;;;;8.55;76.70;99608.75;4993141;28;102590;-74
2024/01/26 04:44:17;;;;;;;3.20;1.48;;;;;;;8.54;76.80;99612.38;5010751;28;103884;-74
2024/01/26 04:46:45;;;;;;;1.98;1.40;;;;;;;8.54;76.87;99607.09;4997888;28;104208;-73
2024/01/26 04:49:13;;;;;;;2.65;1.70;;;;;;;8.54;76.53;99607.94;5012398;28;103227;-74
2024/01/26 04:51:42;;;;;;;3.53;1.98;;;;;;;8.54;76.96;99612.38;4997660;28;102665;-74
2024/01/26 04:54:10;;;;;;;3.10;1.70;;;;;;;8.56;76.49;99621.81;5016320;28;104089;-74
2024/01/26 04:56:38;;;;;;;2.80;1.70;;;;;;;8.55;76.43;99611.41;4986824;28;104243;-74
2024/01/26 04:59:07;;;;;;;1.48;1.38;;;;;;;8.57;76.33;99610.31;5000090;28;104228;-74
2024/01/26 05:01:35;;;;;;;1.70;1.40;;;;;;;8.58;76.31;99611.13;4988903;28;102585;-73
2024/01/26 05:04:04;;;;;;;2.08;1.50;;;;;;;8.60;76.17;99622.41;4992772;28;102868;-74
2024/01/26 05:06:31;;;;;;;3.40;1.67;;;;;;;8.57;76.48;99623.50;5019036;28;103223;-73
2024/01/26 05:08:59;;;;;;;1.88;1.30;;;;;;;8.58;76.06;99624.31;5015896;28;103267;-74
2024/01/26 05:11:27;;;;;;;2.20;1.40;;;;;;;8.54;76.21;99623.78;4997051;28;102631;-75
2024/01/26 05:13:55;;;;;;;3.65;1.65;;;;;;;8.58;76.29;99619.91;5012347;28;104180;-73
2024/01/26 05:16:25;;;;;;;2.17;1.50;;;;;;;8.62;76.20;99620.47;5013409;28;103312;-72
2024/01/26 05:18:53;;;;;;;2.10;1.45;;;;;;;8.65;76.28;99617.56;5015000;28;103297;-74
2024/01/26 05:21:21;;;;;;;2.75;1.80;;;;;;;8.66;76.31;99621.03;5012912;28;102606;-75
2024/01/26 05:23:51;;;;;;;2.05;1.50;;;;;;;8.62;75.98;99626.59;5011325;28;102721;-74
2024/01/26 05:26:19;;;;;;;3.22;1.83;;;;;;;8.67;76.41;99628.81;4990033;28;104249;-75
2024/01/26 05:28:47;;;;;;;1.50;1.40;;;;;;;8.68;76.12;99627.03;5013765;28;103244;-75
2024/01/26 05:31:15;;;;;;;2.25;1.38;;;;;;;8.68;76.20;99622.56;5000646;28;102675;-78
2024/01/26 05:33:44;;;;;;;3.00;1.70;;;;;;;8.70;76.12;99617.16;5015639;28;102721;-77
2024/01/26 05:36:12;;;;;;;2.25;1.30;;;;;;;8.70;76.12;99612.72;4994008;28;103329;-74
2024/01/26 05:38:40;;;;;;;2.22;1.50;;;;;;;8.69;76.32;99605.75;5004654;28;103804;-74
2024/01/26 05:41:08;;;;;;;2.15;1.50;;;;;;;8.68;76.25;99609.38;4990506;28;102704;-74
2024/01/26 05:43:36;;;;;;;1.77;1.45;;;;;;;8.66;76.10;99608.69;5010298;28;102844;-74
2024/01/26 05:46:06;;;;;;;2.13;1.40;;;;;;;8.68;76.08;99606.72;5008386;27;103831;-74
2024/01/26 05:48:36;;;;;;;1.60;1.20;;;;;;;8.69;76.20;99600.47;4990463;28;104341;-75
2024/01/26 05:51:06;;;;;;;3.70;1.73;;;;;;;8.71;76.12;99605.63;5012156;28;102597;-75
2024/01/26 05:53:34;;;;;;;1.60;1.20;;;;;;;8.72;76.15;99605.47;4997221;28;102701;-74
2024/01/26 05:56:02;;;;;;;2.83;1.40;;;;;;;8.72;76.19;99599.38;5012581;28;104290;-74
2024/01/26 05:58:30;;;;;;;1.50;1.30;;;;;;;8.74;76.12;99598.28;5012100;28;103216;-73
2024/01/26 06:00:58;;;;;;;2.53;1.50;;;;;;;8.75;76.00;99597.31;5008091;28;102625;-73
2024/01/26 06:03:26;;;;;;;2.25;1.50;;;;;;;8.71;76.01;99603.84;5011871;28;104197;-73
2024/01/26 06:05:54;;;;;;;1.98;1.45;;;;;;;8.70;76.29;99607.44;4990018;28;104407;-73
2024/01/26 06:08:24;;;;;;;1.95;1.50;;;;;;;8.73;76.28;99601.06;5013704;28;103239;-74
2024/01/26 06:10:52;;;;;;;2.78;1.50;;;;;;;8.74;75.65;99598.28;5017350;28;102657;-74
2024/01/26 06:13:20;;;;;;;3.55;2.03;;;;;;;8.71;75.95;99598.56;5010031;28;103918;-74
2024/01/26 06:15:48;;;;;;;2.83;1.63;;;;;;;8.67;76.15;99612.97;4992531;28;104328;-74
2024/01/26 06:18:16;;;;;;;3.83;1.75;;;;;;;8.62;76.76;99625.75;5008212;28;102726;-74
2024/01/26 06:20:44;;;;;;;3.20;1.40;;;;;;;8.65;76.37;99622.00;5014739;28;102726;-74
2024/01/26 06:23:15;;;;;;;2.80;1.80;;;;;;;8.65;76.58;99622.84;5006444;28;102673;-74
2024/01/26 06:25:44;;;;;;;3.15;1.80;;;;;;;8.61;76.53;99618.81;5010089;28;103066;-74
2024/01/26 06:28:12;;;;;;;2.80;1.75;;;;;;;8.62;76.89;99605.47;4990468;28;104218;-74
2024/01/26 06:30:40;;;;;;;2.60;1.50;;;;;;;8.65;76.46;99604.34;5007261;28;102644;-74
2024/01/26 06:33:08;;;;;;;2.42;1.40;;;;;;;8.66;76.40;99610.47;5012580;28;104240;-74
2024/01/26 06:35:39;;;;;;;1.52;1.42;;;;;;;8.64;76.42;99613.25;4994141;28;104798;-74
2024/01/26 06:38:07;;;;;;;3.50;1.50;;;;;;;8.67;76.57;99606.88;4993134;28;104186;-74
2024/01/26 06:40:35;;;;;;;3.92;2.15;;;;;;;8.67;76.11;99612.16;4988940;28;102619;-74
2024/01/26 06:43:06;;;;;;;2.72;1.58;;;;;;;8.69;75.66;99608.41;5011049;28;105062;-73
2024/01/26 06:45:34;;;;;;;2.65;1.58;;;;;;;8.72;75.65;99610.75;5008980;28;104649;-74
2024/01/26 06:48:02;;;;;;;3.83;1.70;;;;;;;8.76;75.47;99606.06;5011152;28;103299;-74
2024/01/26 06:50:30;;;;;;;3.15;1.55;;;;;;;8.75;75.69;99615.78;4987749;28;102677;-74
2024/01/26 06:52:58;;;;;;;3.13;1.83;;;;;;;8.77;75.44;99608.56;4993375;28;102806;-74
2024/01/26 06:55:26;;;;;;;5.63;2.05;;;;;;;8.75;75.42;99605.22;4992028;28;104047;-74
2024/01/26 06:57:54;;;;;;;2.25;1.50;;;;;;;8.78;75.11;99615.53;5004294;28;103228;-74
2024/01/26 07:00:23;;;;;;;2.10;1.50;;;;;;;8.82;75.31;99605.53;5012620;28;102680;-74
2024/01/26 07:02:51;;;;;;;3.38;1.40;;;;;;;8.83;75.27;99603.72;4992104;28;102923;-75
2024/01/26 07:05:19;;;;;;;2.83;1.50;;;;;;;8.83;74.91;99609.84;4992001;28;103371;-75
2024/01/26 07:07:49;;;;;;;2.53;1.50;;;;;;;8.85;75.10;99607.06;5009206;28;102558;-73
2024/01/26 07:10:17;;;;;;;1.55;1.30;;;;;;;8.91;74.78;99604.72;4965631;28;102743;-74
2024/01/26 07:12:45;;;;;;;3.10;1.48;;;;;;;8.94;74.71;99598.31;4983731;28;102846;-79
2024/01/26 07:15:13;;;;;;;2.15;1.30;;;;;;;8.94;74.72;99599.16;5004320;28;104256;-74
2024/01/26 07:17:42;;;;;;;2.13;1.48;;;;;;;8.96;74.85;99596.38;5002011;28;104909;-74
2024/01/26 07:20:11;;;;;;;2.58;1.63;;;;;;;8.97;74.54;99598.03;4995249;28;102919;-74
2024/01/26 07:22:39;;;;;;;2.40;1.50;;;;;;;9.03;74.20;99599.34;4996752;28;102718;-74
2024/01/26 07:25:11;;;;;;;2.17;1.55;;;;;;;9.01;74.02;99596.78;5004839;28;103163;-73
2024/01/26 07:27:39;;;;;;;3.23;1.70;;;;;;;9.05;74.27;99592.09;4991910;28;103177;-73
2024/01/26 07:30:09;;;;;;;3.38;1.75;;;;;;;8.99;73.99;99582.91;5001347;28;102682;-73
2024/01/26 07:32:37;;;;;;;4.25;1.70;;;;;;;9.06;74.19;99569.97;4981889;28;102706;-73
2024/01/26 07:35:07;;;;;;;3.13;1.85;;;;;;;9.05;73.74;99571.81;4983064;28;103375;-80
2024/01/26 07:37:36;;;;;;;3.67;1.77;;;;;;;9.13;73.88;99569.28;5007131;28;102783;-80
2024/01/26 07:40:04;;;;;;;2.45;1.80;;;;;;;9.10;73.67;99566.94;5006660;28;102715;-80
2024/01/26 07:42:33;;;;;;;7.47;1.48;;;;;;;9.18;73.49;99568.03;5003143;28;102636;-80
2024/01/26 07:45:01;;;;;;;4.28;1.63;;;;;;;9.26;73.31;99570.81;4984174;28;104072;-80
2024/01/26 07:47:29;;;;;;;2.58;1.58;;;;;;;9.25;73.06;99579.75;5002870;28;103257;-80
2024/01/26 07:49:57;;;;;;;4.18;1.80;;;;;;;9.37;72.81;99578.63;4994279;28;103948;-80
2024/01/26 07:52:27;;;;;;;3.78;1.50;;;;;;;9.37;72.70;99578.63;4987208;28;102942;-80
2024/01/26 07:54:55;;;;;;;2.55;1.50;;;;;;;9.46;72.62;99585.72;5001031;28;104160;-81
2024/01/26 07:57:24;;;;;;;3.15;1.50;;;;;;;9.50;72.29;99577.50;4991336;28;103247;-80
2024/01/26 07:59:52;;;;;;;2.28;1.40;;;;;;;9.55;72.54;99575.28;5003721;28;102753;-80
2024/01/26 08:02:20;;;;;;;3.17;1.65;;;;;;;9.53;72.41;99571.97;5006017;28;103629;-79
2024/01/26 08:04:49;;;;;;;3.40;1.67;;;;;;;9.60;72.35;99563.31;4985354;28;102726;-80
2024/01/26 08:07:17;;;;;;;2.67;1.55;;;;;;;9.67;72.33;99563.59;5007245;28;103195;-80
2024/01/26 08:09:46;;;;;;;3.38;1.52;;;;;;;9.74;71.97;99579.72;5007191;27;102626;-80
2024/01/26 08:12:14;;;;;;;5.68;1.60;;;;;;;9.86;71.82;99564.53;4994397;28;102779;-80
2024/01/26 08:15:00;;;;;;;3.17;1.60;;;;;;;9.87;71.53;99569.69;5005292;27;104312;-80
2024/01/26 08:17:35;;;;;;;2.60;1.60;;;;;;;9.90;71.44;99561.47;5001829;28;103856;-81
2024/01/26 08:20:04;;;;;;;3.30;1.73;;;;;;;9.99;71.32;99557.13;4987825;28;102855;-79
2024/01/26 08:22:33;;;;;;;2.08;1.58;;;;;;;10.04;70.99;99554.06;5004896;28;102833;-79
2024/01/26 08:25:02;;;;;;;2.33;1.48;;;;;;;10.11;70.98;99566.56;5004496;28;102641;-79
2024/01/26 08:27:30;;;;;;;2.70;1.67;;;;;;;10.17;70.33;99565.16;4996900;28;103266;-81
2024/01/26 08:29:59;;;;;;;4.90;1.75;;;;;;;10.08;70.59;99574.78;4999515;28;102754;-79
2024/01/26 08:32:27;;;;;;;1.88;1.38;;;;;;;10.21;70.48;99565.72;4995286;28;103536;-81
2024/01/26 08:34:56;;;;;;;3.67;1.88;;;;;;;10.31;70.12;99558.56;4977895;28;102794;-78
2024/01/26 08:37:24;;;;;;;2.45;1.40;;;;;;;10.29;69.95;99557.88;5003354;28;103206;-78
2024/01/26 08:39:54;;;;;;;1.98;1.42;;;;;;;10.33;70.08;99548.66;5000462;28;102891;-81
2024/01/26 08:42:23;;;;;;;2.33;1.55;;;;;;;10.29;69.89;99532.22;5007942;28;102917;-81
2024/01/26 08:44:51;;;;;;;2.78;1.60;;;;;;;10.25;70.10;99533.50;4988204;28;104209;-79
2024/01/26 08:47:19;;;;;;;2.45;1.45;;;;;;;10.30;69.76;99522.47;4999870;28;103271;-80
2024/01/26 08:49:47;;;;;;;3.03;1.55;;;;;;;10.34;69.92;99515.91;5005862;28;102772;-80
2024/01/26 08:52:15;;;;;;;2.33;1.30;;;;;;;10.37;69.93;99507.69;4992032;28;104111;-79
2024/01/26 08:54:45;;;;;;;2.35;1.40;;;;;;;10.38;69.94;99509.34;4999120;28;103396;-77
2024/01/26 08:57:13;;;;;;;6.85;1.90;;;;;;;10.45;69.55;99501.66;5006296;28;103322;-80
2024/01/26 08:59:44;;;;;;;4.00;1.45;;;;;;;10.39;69.31;99505.72;4984090;28;102791;-80
2024/01/26 09:02:12;;;;;;;2.85;1.50;;;;;;;10.41;69.52;99497.63;4987830;28;103743;-80
2024/01/26 09:04:40;;;;;;;3.78;1.45;;;;;;;10.42;69.17;99489.53;5007898;28;103338;-80
2024/01/26 09:07:08;;;;;;;3.65;1.60;;;;;;;10.43;69.49;99485.91;5009752;28;103355;-80
2024/01/26 09:09:38;;;;;;;2.28;1.50;;;;;;;10.54;69.54;99486.69;4988829;28;102700;-79
2024/01/26 09:12:09;;;;;;;3.42;1.60;;;;;;;10.48;69.20;99480.19;5007265;28;102865;-78
2024/01/26 09:14:37;;;;;;;4.43;1.45;;;;;;;10.51;69.04;99471.13;4989177;28;103074;-79
2024/01/26 09:17:08;;;;;;;1.73;1.30;;;;;;;10.59;68.98;99479.97;4976738;28;104424;-80
2024/01/26 09:19:39;;;;;;;15.10;2.22;;;;;;;10.67;68.82;99487.16;4994118;28;102770;-80
2024/01/26 09:22:08;;;;;;;3.90;1.88;;;;;;;10.73;68.81;99491.88;4982469;28;102798;-80
2024/01/26 09:24:36;;;;;;;2.22;1.50;;;;;;;10.76;68.64;99486.28;4993804;28;104410;-81
2024/01/26 09:27:07;;;;;;;3.80;1.67;;;;;;;10.77;68.06;99489.78;4981009;28;104233;-80
2024/01/26 09:29:35;;;;;;;2.90;1.60;;;;;;;10.81;68.78;99492.94;5001815;28;102962;-83
2024/01/26 09:32:04;;;;;;;2.88;1.20;;;;;;;10.84;68.42;99482.03;5008231;28;102691;-81
2024/01/26 09:34:33;;;;;;;1.35;1.25;;;;;;;10.83;68.28;99488.31;4986829;28;104545;-79
2024/01/26 09:37:02;;;;;;;2.38;1.50;;;;;;;10.88;68.30;99488.72;4998716;28;103314;-86
2024/01/26 09:39:30;;;;;;;2.38;1.40;;;;;;;10.84;68.50;99487.34;4985244;28;102716;-84
2024/01/26 09:41:57;;;;;;;3.65;1.40;;;;;;;10.81;68.51;99492.94;5008190;28;102804;-83
2024/01/26 09:44:26;;;;;;;3.20;1.13;;;;;;;10.84;68.23;99485.53;4991261;28;103021;-83
2024/01/26 09:46:58;;;;;;;1.88;1.50;;;;;;;10.89;68.40;99480.59;5008915;28;103215;-87
2024/01/26 09:49:28;;;;;;;1.30;1.20;;;;;;;10.90;68.34;99476.13;5011607;28;102701;-80
2024/01/26 09:52:00;;;;;;;2.50;1.45;;;;;;;10.90;68.21;99478.78;4990573;28;104160;-86
2024/01/26 09:54:28;;;;;;;2.50;1.70;;;;;;;10.97;67.77;99473.72;5000925;28;103321;-78
2024/01/26 09:56:58;;;;;;;1.38;1.20;;;;;;;10.94;67.97;99474.88;4979211;28;104094;-80
2024/01/26 09:59:28;;;;;;;1.90;1.27;;;;;;;11.05;68.13;99479.91;4994895;28;102865;-80
2024/01/26 10:02:00;;;;;;;2.58;1.55;;;;;;;11.01;67.77;99480.38;4999542;28;103885;-85
2024/01/26 10:04:28;;;;;;;3.85;1.50;;;;;;;10.98;67.56;99478.03;4991723;28;104760;-83
2024/01/26 10:06:56;;;;;;;2.38;1.40;;;;;;;11.11;67.45;99486.44;4984789;28;104004;-84
2024/01/26 10:09:27;;;;;;;3.28;1.88;;;;;;;10.97;67.61;99492.28;5003533;28;102677;-85
2024/01/26 10:11:55;;;;;;;2.25;1.65;;;;;;;11.02;67.56;99496.13;4986987;28;104789;-79
2024/01/26 10:14:23;;;;;;;3.47;1.80;;;;;;;11.08;67.72;99490.25;4986050;28;104316;-81
2024/01/26 10:16:56;;;;;;;3.15;1.75;;;;;;;11.05;67.32;99479.09;4987634;28;102942;-81
2024/01/26 10:19:25;;;;;;;2.25;1.50;;;;;;;11.04;67.84;99483.53;5003521;28;103018;-80
2024/01/26 10:21:54;;;;;;;3.22;1.67;;;;;;;11.11;67.39;99479.31;4980143;28;104281;-79
2024/01/26 10:24:23;;;;;;;3.33;1.50;;;;;;;11.05;67.45;99479.91;5005896;28;103347;-79
2024/01/26 10:26:53;;;;;;;2.50;1.55;;;;;;;11.18;67.54;99478.72;5009532;28;103287;-80
2024/01/26 10:29:23;;;;;;;3.00;1.70;;;;;;;11.23;67.27;99473.78;5004093;28;102749;-79
2024/01/26 10:31:52;;;;;;;2.67;1.75;;;;;;;11.22;66.88;99469.47;5016053;28;102598;-78
2024/01/26 10:34:21;;;;;;;2.08;1.48;;;;;;;11.24;67.56;99476.28;5003394;28;103281;-79
2024/01/26 10:36:50;;;;;;;2.80;1.50;;;;;;;11.23;67.05;99465.84;4996964;28;103209;-80
2024/01/26 10:39:23;;;;;;;1.85;1.40;;;;;;;11.20;67.29;99471.41;4988569;28;103084;-74
2024/01/26 10:41:53;;;;;;;2.55;1.52;;;;;;;11.18;66.74;99465.47;4997364;28;102978;-73
2024/01/26 10:44:22;;;;;;;3.90;1.80;;;;;;;11.23;66.68;99460.53;4990263;28;103944;-72
2024/01/26 10:46:51;;;;;;;2.85;1.58;;;;;;;11.24;66.75;99464.81;5002523;28;103305;-73
2024/01/26 10:49:21;;;;;;;3.80;1.50;;;;;;;11.25;66.27;99462.03;4998444;28;102694;-73
2024/01/26 10:51:52;;;;;;;2.75;1.58;;;;;;;11.26;66.70;99455.72;5001322;28;104080;-73
2024/01/26 10:54:22;;;;;;;2.15;1.50;;;;;;;11.21;66.35;99449.22;4981398;28;105385;-73
2024/01/26 10:56:50;;;;;;;2.83;1.60;;;;;;;11.21;66.46;99449.22;5000242;28;104573;-73
2024/01/26 10:59:20;;;;;;;1.92;1.40;;;;;;;11.28;66.53;99443.16;5001532;28;102743;-72
2024/01/26 11:01:48;;;;;;;2.85;1.50;;;;;;;11.32;66.25;99427.78;4997664;28;104220;-72
2024/01/26 11:04:18;;;;;;;2.10;1.50;;;;;;;11.41;66.38;99426.00;4995119;28;103490;-72
2024/01/26 11:06:47;;;;;;;2.88;1.60;;;;;;;11.40;66.13;99422.53;4971596;28;102989;-73
2024/01/26 11:09:19;;;;;;;3.45;2.00;;;;;;;11.42;65.91;99433.81;4985300;28;102704;-72
2024/01/26 11:11:51;;;;;;;1.90;1.50;;;;;;;11.44;66.39;99426.53;4984127;28;104009;-73
2024/01/26 11:14:28;;;;;;;2.10;1.40;;;;;;;11.38;66.15;99427.13;4999167;28;103942;-72
2024/01/26 11:17:09;;;;;;;2.70;1.70;;;;;;;11.40;66.10;99425.19;4981357;28;104200;-73
2024/01/26 11:19:37;;;;;;;4.40;1.60;;;;;;;11.44;66.22;99426.53;4982771;28;102753;-72
2024/01/26 11:22:07;;;;;;;2.20;1.60;;;;;;;11.39;66.27;99415.53;4982344;28;104009;-72
2024/01/26 11:24:36;;;;;;;2.13;1.30;;;;;;;11.48;66.38;99405.84;4991789;28;103279;-73
2024/01/26 11:27:05;;;;;;;3.50;1.60;;;;;;;11.54;66.28;99404.38;4982123;28;104165;-72
2024/01/26 11:29:36;;;;;;;3.38;1.70;;;;;;;11.45;66.39;99400.84;4987150;28;102986;-73
2024/01/26 11:32:16;;;;;;;2.38;1.42;;;;;;;11.47;67.21;99392.72;4996608;28;102740;-73
2024/01/26 11:34:45;;;;;;;1.92;1.38;;;;;;;11.39;67.26;99391.69;4999019;28;104190;-73
2024/01/26 11:37:14;;;;;;;2.30;1.48;;;;;;;11.48;67.01;99400.53;4986658;28;103249;-73
2024/01/26 11:39:43;;;;;;;2.20;1.40;;;;;;;11.48;66.61;99405.00;4988408;28;102936;-74